createdAt,value
2022-12-06T00:01:15.197Z,9.65
2022-12-06T00:03:43.465Z,6.72
2022-12-06T00:06:13.104Z,8.57
2022-12-06T00:08:40.419Z,8.25
2022-12-06T00:11:13.935Z,8.88
2022-12-06T00:13:42.022Z,8.80
2022-12-06T00:16:11.407Z,10.48
2022-12-06T00:18:39.682Z,9.23
2022-12-06T00:21:13.044Z,10.02
2022-12-06T00:23:44.856Z,9.82
2022-12-06T00:26:12.109Z,10.18
2022-12-06T00:28:39.381Z,9.45
2022-12-06T00:31:11.948Z,9.00
2022-12-06T00:33:38.615Z,10.75
2022-12-06T00:36:08.200Z,8.48
2022-12-06T00:38:36.396Z,9.15
2022-12-06T00:41:09.407Z,10.18
2022-12-06T00:43:36.970Z,7.97
2022-12-06T00:46:05.613Z,7.75
2022-12-06T00:48:32.826Z,8.02
2022-12-06T00:50:59.720Z,8.27
2022-12-06T00:53:28.043Z,9.07
2022-12-06T00:55:57.988Z,8.73
2022-12-06T00:58:25.011Z,9.32
2022-12-06T01:00:52.526Z,7.97
2022-12-06T01:03:19.403Z,8.13
2022-12-06T01:05:48.699Z,8.55
2022-12-06T01:08:16.773Z,8.52
2022-12-06T01:10:52.203Z,8.77
2022-12-06T01:13:19.051Z,7.82
2022-12-06T01:15:45.732Z,9.05
2022-12-06T01:18:12.585Z,10.75
2022-12-06T01:20:39.175Z,8.48
2022-12-06T01:23:05.772Z,8.63
2022-12-06T01:25:35.761Z,7.70
2022-12-06T01:28:04.148Z,10.43
2022-12-06T01:30:30.835Z,9.18
2022-12-06T01:32:57.480Z,7.45
2022-12-06T01:35:24.044Z,9.65
2022-12-06T01:37:50.615Z,9.60
2022-12-06T01:40:17.268Z,9.23
2022-12-06T01:42:43.878Z,9.75
2022-12-06T01:45:10.861Z,8.48
2022-12-06T01:47:41.522Z,8.63
2022-12-06T01:50:11.213Z,7.57
2022-12-06T01:52:49.796Z,6.97
2022-12-06T01:55:18.640Z,7.85
2022-12-06T01:57:46.088Z,7.05
2022-12-06T02:00:13.223Z,6.90
2022-12-06T02:02:40.013Z,7.18
2022-12-06T02:05:07.648Z,6.60
2022-12-06T02:07:34.626Z,6.60
2022-12-06T02:10:05.849Z,7.63
2022-12-06T02:12:32.511Z,8.93
2022-12-06T02:14:59.656Z,7.20
2022-12-06T02:17:40.998Z,7.82
2022-12-06T02:20:20.734Z,6.18
2022-12-06T02:23:23.892Z,6.57
2022-12-06T02:26:15.389Z,6.97
2022-12-06T02:29:01.671Z,7.55
2022-12-06T02:31:34.189Z,7.95
2022-12-06T02:34:07.088Z,7.03
2022-12-06T02:36:40.770Z,8.02
2022-12-06T02:39:24.413Z,8.45
2022-12-06T02:42:00.169Z,6.10
2022-12-06T02:44:33.355Z,6.32
2022-12-06T02:47:04.107Z,6.25
2022-12-06T02:49:33.386Z,7.40
2022-12-06T02:52:00.394Z,6.93
2022-12-06T02:54:28.059Z,7.72
2022-12-06T02:56:54.641Z,7.60
2022-12-06T02:59:21.690Z,8.13
2022-12-06T03:01:52.673Z,7.55
2022-12-06T03:04:54.549Z,7.05
2022-12-06T03:07:35.421Z,7.03
2022-12-06T03:10:40.797Z,7.97
2022-12-06T03:13:18.799Z,8.20
2022-12-06T03:16:06.986Z,8.07
2022-12-06T03:18:48.476Z,9.13
2022-12-06T03:21:29.292Z,9.60
2022-12-06T03:23:56.848Z,8.30
2022-12-06T03:26:27.701Z,11.48
2022-12-06T03:28:57.805Z,11.90
2022-12-06T03:31:26.644Z,10.13
2022-12-06T03:33:58.604Z,10.32
2022-12-06T03:36:27.126Z,10.63
2022-12-06T03:38:57.638Z,9.40
2022-12-06T03:41:29.092Z,12.45
2022-12-06T03:43:56.176Z,11.25
2022-12-06T03:46:35.014Z,10.68
2022-12-06T03:49:07.232Z,12.32
2022-12-06T03:54:07.362Z,10.55
2022-12-06T03:59:08.152Z,9.52
2022-12-06T04:01:35.018Z,11.48
2022-12-06T04:04:01.885Z,11.13
2022-12-06T04:06:28.641Z,10.75
2022-12-06T04:09:15.587Z,10.80
2022-12-06T04:11:42.397Z,10.27
2022-12-06T04:14:09.007Z,8.20
2022-12-06T04:16:54.185Z,10.80
2022-12-06T04:19:20.799Z,10.65
2022-12-06T04:22:05.849Z,9.93
2022-12-06T04:24:32.512Z,10.32
2022-12-06T04:27:19.065Z,10.80
2022-12-06T04:30:04.217Z,11.95
2022-12-06T04:32:49.571Z,9.05
2022-12-06T04:35:34.901Z,11.07
2022-12-06T04:38:20.328Z,12.02
2022-12-06T04:40:48.175Z,9.98
2022-12-06T04:43:33.356Z,12.70
2022-12-06T04:45:59.992Z,10.93
2022-12-06T04:48:26.593Z,12.57
2022-12-06T04:50:53.154Z,13.15
2022-12-06T04:53:19.803Z,13.57
2022-12-06T04:55:47.808Z,10.00
2022-12-06T04:58:15.601Z,11.35
2022-12-06T05:00:43.503Z,11.05
2022-12-06T05:03:14.621Z,10.98
2022-12-06T05:05:42.385Z,14.68
2022-12-06T05:08:10.077Z,11.25
2022-12-06T05:10:36.853Z,13.30
2022-12-06T05:13:04.152Z,12.05
2022-12-06T05:15:31.677Z,13.65
2022-12-06T05:17:58.289Z,10.40
2022-12-06T05:20:25.177Z,10.93
2022-12-06T05:22:51.771Z,13.15
2022-12-06T05:25:18.400Z,9.77
2022-12-06T05:27:44.995Z,11.73
2022-12-06T05:30:12.171Z,14.57
2022-12-06T05:32:40.184Z,10.75
2022-12-06T05:35:08.014Z,11.30
2022-12-06T05:37:34.636Z,13.27
2022-12-06T05:40:01.566Z,11.98
2022-12-06T05:42:28.365Z,11.90
2022-12-06T05:44:54.940Z,11.05
2022-12-06T05:47:21.490Z,11.35
2022-12-06T05:49:48.082Z,10.43
2022-12-06T05:52:14.688Z,9.95
2022-12-06T05:54:41.291Z,10.93
2022-12-06T05:57:07.881Z,11.70
2022-12-06T05:59:34.441Z,13.00
2022-12-06T06:02:01.132Z,12.38
2022-12-06T06:04:27.882Z,11.30
2022-12-06T06:06:54.566Z,12.68
2022-12-06T06:09:21.293Z,12.52
2022-12-06T06:11:48.011Z,12.60
2022-12-06T06:14:14.865Z,12.65
2022-12-06T06:16:41.585Z,11.55
2022-12-06T06:19:08.244Z,11.75
2022-12-06T06:21:34.831Z,12.43
2022-12-06T06:24:01.513Z,13.30
2022-12-06T06:26:28.141Z,12.38
2022-12-06T06:28:54.714Z,15.02
2022-12-06T06:31:21.740Z,13.32
2022-12-06T06:33:48.408Z,12.65
2022-12-06T06:36:14.988Z,10.88
2022-12-06T06:38:41.532Z,12.13
2022-12-06T06:41:08.257Z,11.20
2022-12-06T06:43:34.851Z,10.85
2022-12-06T06:46:03.692Z,10.55
2022-12-06T06:48:32.051Z,13.52
2022-12-06T06:51:07.137Z,11.55
2022-12-06T06:53:33.752Z,11.73
2022-12-06T06:56:00.368Z,13.57
2022-12-06T06:58:27.234Z,11.43
2022-12-06T07:00:55.553Z,11.35
2022-12-06T07:03:23.180Z,13.50
2022-12-06T07:06:10.425Z,12.23
2022-12-06T07:08:38.543Z,12.80
2022-12-06T07:11:06.006Z,12.73
2022-12-06T07:13:32.640Z,11.60
2022-12-06T07:15:59.342Z,12.75
2022-12-06T07:18:26.399Z,15.30
2022-12-06T07:21:07.952Z,12.15
2022-12-06T07:23:35.750Z,11.23
2022-12-06T07:26:07.976Z,10.25
2022-12-06T07:31:11.148Z,11.73
2022-12-06T07:33:38.639Z,12.23
2022-12-06T07:36:14.085Z,13.02
2022-12-06T07:38:42.811Z,11.52
2022-12-06T07:41:31.716Z,13.63
2022-12-06T07:44:17.743Z,13.63
2022-12-06T07:46:44.989Z,13.77
2022-12-06T07:49:12.356Z,13.00
2022-12-06T07:51:40.081Z,14.10
2022-12-06T07:54:06.808Z,15.30
2022-12-06T07:56:33.514Z,12.52
2022-12-06T07:59:01.310Z,14.68
2022-12-06T08:01:28.675Z,14.38
2022-12-06T08:03:56.288Z,14.45
2022-12-06T08:06:23.382Z,15.00
2022-12-06T08:08:50.100Z,14.88
2022-12-06T08:11:16.923Z,14.38
2022-12-06T08:13:43.569Z,16.10
2022-12-06T08:16:12.983Z,14.20
2022-12-06T08:18:40.692Z,13.90
2022-12-06T08:21:08.248Z,17.42
2022-12-06T08:23:35.985Z,21.00
2022-12-06T08:26:05.966Z,16.25
2022-12-06T08:28:34.471Z,16.75
2022-12-06T08:31:19.228Z,17.55
2022-12-06T08:33:46.396Z,15.02
2022-12-06T08:36:16.132Z,18.13
2022-12-06T08:38:43.490Z,21.15
2022-12-06T08:41:30.782Z,17.60
2022-12-06T08:43:59.200Z,17.65
2022-12-06T08:46:26.898Z,22.08
2022-12-06T08:48:53.609Z,18.77
2022-12-06T08:51:20.407Z,20.67
2022-12-06T08:53:47.406Z,19.75
2022-12-06T08:56:14.506Z,21.25
2022-12-06T08:58:41.532Z,22.00
2022-12-06T09:01:17.330Z,18.83
2022-12-06T09:03:44.173Z,19.45
2022-12-06T09:06:11.224Z,19.33
2022-12-06T09:08:39.457Z,19.50
2022-12-06T09:11:07.844Z,16.75
2022-12-06T09:13:36.831Z,20.65
2022-12-06T09:16:12.600Z,21.05
2022-12-06T09:18:39.651Z,19.65
2022-12-06T09:21:07.706Z,22.83
2022-12-06T09:23:35.741Z,19.15
2022-12-06T09:26:03.264Z,17.83
2022-12-06T09:28:31.175Z,19.50
2022-12-06T09:30:58.089Z,17.48
2022-12-06T09:33:24.772Z,19.65
2022-12-06T09:35:51.877Z,18.10
2022-12-06T09:38:21.059Z,16.45
2022-12-06T09:41:05.679Z,18.92
2022-12-06T09:43:44.479Z,15.00
2022-12-06T09:46:48.524Z,17.63
2022-12-06T09:49:28.038Z,16.77
2022-12-06T09:52:12.701Z,16.00
2022-12-06T09:55:00.585Z,15.60
2022-12-06T09:57:49.101Z,13.73
2022-12-06T10:00:22.853Z,14.20
2022-12-06T10:03:20.388Z,16.50
2022-12-06T10:06:06.891Z,17.23
2022-12-06T10:08:57.791Z,14.85
2022-12-06T10:11:43.060Z,14.45
2022-12-06T10:14:26.890Z,18.73
2022-12-06T10:17:18.057Z,16.77
2022-12-06T10:20:04.589Z,17.80
2022-12-06T10:22:42.967Z,21.15
2022-12-06T10:25:23.711Z,20.23
2022-12-06T10:28:11.748Z,19.17
2022-12-06T10:30:52.460Z,17.40
2022-12-06T10:33:46.880Z,16.25
2022-12-06T10:36:19.680Z,17.52
2022-12-06T10:38:51.676Z,18.30
2022-12-06T10:41:18.414Z,16.67
2022-12-06T10:44:06.683Z,15.85
2022-12-06T10:47:07.212Z,16.05
2022-12-06T10:49:51.499Z,15.93
2022-12-06T10:52:42.903Z,17.38
2022-12-06T10:55:13.165Z,16.02
2022-12-06T10:57:49.130Z,16.45
2022-12-06T11:00:25.018Z,17.83
2022-12-06T11:03:03.311Z,15.82
2022-12-06T11:05:54.261Z,17.25
2022-12-06T11:08:33.144Z,18.23
2022-12-06T11:11:00.564Z,17.75
2022-12-06T11:13:54.137Z,17.38
2022-12-06T11:16:24.572Z,17.83
2022-12-06T11:18:51.594Z,16.35
2022-12-06T11:21:31.084Z,17.20
2022-12-06T11:24:35.326Z,18.75
2022-12-06T11:27:16.271Z,17.10
2022-12-06T11:29:44.380Z,19.67
2022-12-06T11:32:13.931Z,17.05
2022-12-06T11:34:51.708Z,16.23
2022-12-06T11:37:20.941Z,13.00
2022-12-06T11:39:51.708Z,15.63
2022-12-06T11:42:23.268Z,13.60
2022-12-06T11:45:08.572Z,11.95
2022-12-06T11:47:35.179Z,11.57
2022-12-06T11:50:08.480Z,14.02
2022-12-06T11:52:45.910Z,13.45
2022-12-06T11:55:18.572Z,13.93
2022-12-06T11:57:51.876Z,17.38
2022-12-06T12:00:22.560Z,14.00
2022-12-06T12:02:52.061Z,18.73
2022-12-06T12:05:25.774Z,18.67
2022-12-06T12:07:58.053Z,17.48
2022-12-06T12:10:30.765Z,16.95
2022-12-06T12:13:23.168Z,19.20
2022-12-06T12:15:53.042Z,14.57
2022-12-06T12:18:28.290Z,15.77
2022-12-06T12:20:57.777Z,14.98
2022-12-06T12:23:42.994Z,15.05
2022-12-06T12:26:18.704Z,14.07
2022-12-06T12:29:01.317Z,13.52
2022-12-06T12:31:28.005Z,15.88
2022-12-06T12:34:30.223Z,13.68
2022-12-06T12:37:02.739Z,11.85
2022-12-06T12:39:50.887Z,13.23
2022-12-06T12:42:28.455Z,13.95
2022-12-06T12:45:00.015Z,11.70
2022-12-06T12:47:27.835Z,14.27
2022-12-06T12:50:11.677Z,14.93
2022-12-06T12:52:41.252Z,12.93
2022-12-06T12:55:16.672Z,13.27
2022-12-06T12:57:45.972Z,15.43
2022-12-06T13:00:22.246Z,14.00
2022-12-06T13:03:01.644Z,13.45
2022-12-06T13:05:34.007Z,15.20
2022-12-06T13:08:26.246Z,14.32
2022-12-06T13:10:59.231Z,15.35
2022-12-06T13:13:44.440Z,14.48
2022-12-06T13:16:14.613Z,13.70
2022-12-06T13:18:51.199Z,16.05
2022-12-06T13:21:17.788Z,14.90
2022-12-06T13:23:45.656Z,14.10
2022-12-06T13:26:34.948Z,16.10
2022-12-06T13:29:07.359Z,15.10
2022-12-06T13:31:39.700Z,14.63
2022-12-06T13:34:41.583Z,14.10
2022-12-06T13:37:34.388Z,14.37
2022-12-06T13:40:02.612Z,11.88
2022-12-06T13:42:47.605Z,14.68
2022-12-06T13:45:46.906Z,10.55
2022-12-06T13:48:25.643Z,10.02
2022-12-06T13:50:58.984Z,11.38
2022-12-06T13:53:28.224Z,13.75
2022-12-06T13:56:23.147Z,10.55
2022-12-06T13:58:53.644Z,11.02
2022-12-06T14:01:42.721Z,11.27
2022-12-06T14:06:56.958Z,10.80
2022-12-06T14:09:25.658Z,11.13
2022-12-06T14:11:53.131Z,10.75
2022-12-06T14:14:22.473Z,9.88
2022-12-06T14:16:53.955Z,10.02
2022-12-06T14:19:31.139Z,10.40
2022-12-06T14:22:00.351Z,8.02
2022-12-06T14:24:29.398Z,7.57
2022-12-06T14:27:06.079Z,8.52
2022-12-06T14:29:33.004Z,9.88
2022-12-06T14:31:59.785Z,8.38
2022-12-06T14:34:29.136Z,8.80
2022-12-06T14:36:57.451Z,9.82
2022-12-06T14:39:30.015Z,8.27
2022-12-06T14:42:33.459Z,8.35
2022-12-06T14:45:02.644Z,7.78
2022-12-06T14:47:30.636Z,9.65
2022-12-06T14:50:18.928Z,9.85
2022-12-06T14:53:31.228Z,9.38
2022-12-06T14:56:02.336Z,8.40
2022-12-06T14:58:33.149Z,11.05
2022-12-06T15:01:06.382Z,11.95
2022-12-06T15:03:35.311Z,12.50
2022-12-06T15:06:18.666Z,12.57
2022-12-06T15:08:53.451Z,11.95
2022-12-06T15:11:53.641Z,10.40
2022-12-06T15:14:23.020Z,15.90
2022-12-06T15:17:01.805Z,25.73
2022-12-06T15:19:31.640Z,27.42
2022-12-06T15:21:58.430Z,11.68
2022-12-06T15:24:27.790Z,14.27
2022-12-06T15:26:55.045Z,12.32
2022-12-06T15:29:22.021Z,13.50
2022-12-06T15:31:54.138Z,11.15
2022-12-06T15:34:22.465Z,13.05
2022-12-06T15:36:49.387Z,10.43
2022-12-06T15:39:16.038Z,17.58
2022-12-06T15:41:43.281Z,9.25
2022-12-06T15:44:15.609Z,11.60
2022-12-06T15:46:42.951Z,11.85
2022-12-06T15:49:14.756Z,29.45
2022-12-06T15:51:42.351Z,16.10
2022-12-06T15:54:16.516Z,11.30
2022-12-06T15:56:43.161Z,11.07
2022-12-06T15:59:10.373Z,10.35
2022-12-06T16:01:44.770Z,11.57
2022-12-06T16:04:20.996Z,12.40
2022-12-06T16:06:47.668Z,9.50
2022-12-06T16:09:15.822Z,13.82
2022-12-06T16:11:42.756Z,14.40
2022-12-06T16:14:10.116Z,14.20
2022-12-06T16:16:43.077Z,12.65
2022-12-06T16:19:10.393Z,11.93
2022-12-06T16:21:51.324Z,13.55
2022-12-06T16:24:18.079Z,11.30
2022-12-06T16:26:45.609Z,13.02
2022-12-06T16:29:20.318Z,12.25
2022-12-06T16:31:47.651Z,11.40
2022-12-06T16:34:14.938Z,11.13
2022-12-06T16:36:57.599Z,11.13
2022-12-06T16:39:24.463Z,14.07
2022-12-06T16:41:51.156Z,12.85
2022-12-06T16:44:17.832Z,12.90
2022-12-06T16:46:45.482Z,10.23
2022-12-06T16:49:45.226Z,13.80
2022-12-06T16:52:06.729Z,14.48
2022-12-06T16:54:33.407Z,13.15
2022-12-06T16:57:00.001Z,12.52
2022-12-06T16:59:26.716Z,13.43
2022-12-06T17:01:54.923Z,11.75
2022-12-06T17:04:22.395Z,13.48
2022-12-06T17:06:49.222Z,12.98
2022-12-06T17:09:16.232Z,13.20
2022-12-06T17:12:01.376Z,11.65
2022-12-06T17:14:28.127Z,11.73
2022-12-06T17:16:55.844Z,12.80
2022-12-06T17:19:26.853Z,28.20
2022-12-06T17:21:53.509Z,32.63
2022-12-06T17:24:21.335Z,68.03
2022-12-06T17:26:48.306Z,33.55
2022-12-06T17:29:15.112Z,15.63
2022-12-06T17:31:42.644Z,18.35
2022-12-06T17:34:12.984Z,16.60
2022-12-06T17:36:40.469Z,18.50
2022-12-06T17:39:08.670Z,19.27
2022-12-06T17:41:53.940Z,19.92
2022-12-06T17:44:21.381Z,15.18
2022-12-06T17:46:47.992Z,13.93
2022-12-06T17:49:18.443Z,14.32
2022-12-06T17:51:45.283Z,12.23
2022-12-06T17:54:13.038Z,12.90
2022-12-06T17:56:42.604Z,14.27
2022-12-06T17:59:12.001Z,11.93
2022-12-06T18:02:06.602Z,11.65
2022-12-06T18:04:30.727Z,11.63
2022-12-06T18:06:58.189Z,13.35
2022-12-06T18:09:24.962Z,10.90
2022-12-06T18:11:51.680Z,13.68
2022-12-06T18:14:18.813Z,14.73
2022-12-06T18:16:46.540Z,14.25
2022-12-06T18:19:16.224Z,12.25
2022-12-06T18:21:43.300Z,14.40
2022-12-06T18:24:21.406Z,14.98
2022-12-06T18:26:48.523Z,14.57
2022-12-06T18:29:17.806Z,12.27
2022-12-06T18:31:44.582Z,12.82
2022-12-06T18:34:12.297Z,12.65
2022-12-06T18:36:39.429Z,13.07
2022-12-06T18:39:12.543Z,13.57
2022-12-06T18:41:41.174Z,22.92
2022-12-06T18:44:10.030Z,51.53
2022-12-06T18:46:38.605Z,24.27
2022-12-06T18:49:05.597Z,18.38
2022-12-06T18:51:34.975Z,15.73
2022-12-06T18:54:04.288Z,14.45
2022-12-06T18:56:32.060Z,11.52
2022-12-06T18:59:00.239Z,13.00
2022-12-06T19:01:29.684Z,12.80
2022-12-06T19:03:59.556Z,13.38
2022-12-06T19:06:28.948Z,14.60
2022-12-06T19:08:59.433Z,15.50
2022-12-06T19:11:26.068Z,12.18
2022-12-06T19:14:02.319Z,13.93
2022-12-06T19:16:43.812Z,12.77
2022-12-06T19:19:29.998Z,15.57
2022-12-06T19:21:59.432Z,12.85
2022-12-06T19:24:26.840Z,14.50
2022-12-06T19:26:57.876Z,10.75
2022-12-06T19:29:24.715Z,10.93
2022-12-06T19:31:51.714Z,13.07
2022-12-06T19:34:26.676Z,11.35
2022-12-06T19:36:54.815Z,12.02
2022-12-06T19:39:21.739Z,10.88
2022-12-06T19:42:06.805Z,12.93
2022-12-06T19:44:33.503Z,14.25
2022-12-06T19:47:00.315Z,14.65
2022-12-06T19:49:28.335Z,12.52
2022-12-06T19:51:55.328Z,14.10
2022-12-06T19:54:25.251Z,15.63
2022-12-06T19:56:53.518Z,17.10
2022-12-06T19:59:25.760Z,15.90
2022-12-06T20:01:54.130Z,17.58
2022-12-06T20:04:23.602Z,50.10
2022-12-06T20:06:52.352Z,29.48
2022-12-06T20:09:21.139Z,18.85
2022-12-06T20:12:03.719Z,19.25
2022-12-06T20:14:48.007Z,18.40
2022-12-06T20:17:17.329Z,14.80
2022-12-06T20:19:48.936Z,17.63
2022-12-06T20:22:17.494Z,16.40
2022-12-06T20:24:44.773Z,17.00
2022-12-06T20:27:11.572Z,19.92
2022-12-06T20:29:38.459Z,18.65
2022-12-06T20:32:05.532Z,18.08
2022-12-06T20:34:33.960Z,16.95
2022-12-06T20:37:05.352Z,17.33
2022-12-06T20:39:35.741Z,17.17
2022-12-06T20:42:05.224Z,15.80
2022-12-06T20:44:32.071Z,16.83
2022-12-06T20:46:59.215Z,18.17
2022-12-06T20:49:25.938Z,16.63
2022-12-06T20:51:53.631Z,18.55
2022-12-06T20:54:21.109Z,17.15
2022-12-06T20:56:51.180Z,13.90
2022-12-06T20:59:17.884Z,14.63
2022-12-06T21:01:44.698Z,15.40
2022-12-06T21:04:15.723Z,17.25
2022-12-06T21:06:42.620Z,18.40
2022-12-06T21:09:09.621Z,14.70
2022-12-06T21:11:36.825Z,14.50
2022-12-06T21:14:04.604Z,14.68
2022-12-06T21:16:33.318Z,16.15
2022-12-06T21:19:08.311Z,14.45
2022-12-06T21:21:38.003Z,15.55
2022-12-06T21:24:07.412Z,15.02
2022-12-06T21:26:34.641Z,16.48
2022-12-06T21:29:01.583Z,19.40
2022-12-06T21:31:36.026Z,16.45
2022-12-06T21:34:03.729Z,20.60
2022-12-06T21:36:30.347Z,20.90
2022-12-06T21:38:58.071Z,17.77
2022-12-06T21:41:25.281Z,17.67
2022-12-06T21:43:51.966Z,16.35
2022-12-06T21:46:21.760Z,15.73
2022-12-06T21:48:56.586Z,19.17
2022-12-06T21:51:25.222Z,16.48
2022-12-06T21:53:52.184Z,17.00
2022-12-06T21:56:21.538Z,17.60
2022-12-06T21:58:49.087Z,18.38
2022-12-06T22:01:21.455Z,16.33
2022-12-06T22:03:49.903Z,14.95
2022-12-06T22:06:17.044Z,16.63
2022-12-06T22:08:44.995Z,17.08
2022-12-06T22:11:17.039Z,16.90
2022-12-06T22:13:44.499Z,16.80
2022-12-06T22:16:12.631Z,23.30
2022-12-06T22:18:44.927Z,21.80
2022-12-06T22:21:19.283Z,22.52
2022-12-06T22:23:46.683Z,19.25
2022-12-06T22:26:19.764Z,19.23
2022-12-06T22:28:47.511Z,18.05
2022-12-06T22:31:22.689Z,18.05
2022-12-06T22:33:51.533Z,19.13
2022-12-06T22:36:19.828Z,22.60
2022-12-06T22:38:57.409Z,29.58
2022-12-06T22:41:24.820Z,24.77
2022-12-06T22:43:53.757Z,27.48
2022-12-06T22:46:21.148Z,38.45
2022-12-06T22:48:48.526Z,38.08
2022-12-06T22:51:16.547Z,29.02
2022-12-06T22:53:45.008Z,24.75
2022-12-06T22:56:12.480Z,25.58
2022-12-06T22:58:39.578Z,27.50
2022-12-06T23:01:18.388Z,23.35
2022-12-06T23:03:46.805Z,22.33
2022-12-06T23:06:15.762Z,23.38
2022-12-06T23:08:43.235Z,21.80
2022-12-06T23:11:18.825Z,26.55
2022-12-06T23:13:45.591Z,24.05
2022-12-06T23:16:17.763Z,24.50
2022-12-06T23:21:19.138Z,24.23
2022-12-06T23:23:47.917Z,22.83
2022-12-06T23:26:17.522Z,25.65
2022-12-06T23:28:45.322Z,23.35
2022-12-06T23:31:20.138Z,25.15
2022-12-06T23:33:47.574Z,23.60
2022-12-06T23:36:17.392Z,25.38
2022-12-06T23:38:44.568Z,24.88
2022-12-06T23:41:20.310Z,26.30
2022-12-06T23:43:47.523Z,27.45
2022-12-06T23:46:21.807Z,27.15
2022-12-06T23:48:49.341Z,22.27
2022-12-06T23:51:19.747Z,25.42
2022-12-06T23:53:50.585Z,25.80
2022-12-06T23:56:18.820Z,22.25
2022-12-06T23:58:46.874Z,23.20
